createdAt,value
2023-05-21T00:02:17.748Z,5.43
2023-05-21T00:07:12.831Z,5.57
2023-05-21T00:09:39.769Z,6.35
2023-05-21T00:12:07.863Z,5.65
2023-05-21T00:14:35.177Z,5.85
2023-05-21T00:17:02.117Z,5.50
2023-05-21T00:19:29.256Z,5.45
2023-05-21T00:21:57.635Z,5.07
2023-05-21T00:24:24.526Z,5.55
2023-05-21T00:26:51.397Z,5.35
2023-05-21T00:29:18.289Z,5.43
2023-05-21T00:31:45.204Z,5.40
2023-05-21T00:34:13.474Z,5.20
2023-05-21T00:36:40.640Z,5.57
2023-05-21T00:39:08.876Z,5.18
2023-05-21T00:41:35.923Z,4.95
2023-05-21T00:44:03.238Z,5.30
2023-05-21T00:46:30.330Z,5.07
2023-05-21T00:48:58.843Z,5.53
2023-05-21T00:51:25.986Z,5.22
2023-05-21T00:53:53.250Z,5.47
2023-05-21T00:56:22.729Z,5.82
2023-05-21T00:58:51.993Z,4.95
2023-05-21T01:01:19.484Z,5.10
2023-05-21T01:03:48.749Z,5.38
2023-05-21T01:06:16.105Z,5.15
2023-05-21T01:08:44.125Z,5.30
2023-05-21T01:11:11.882Z,5.40
2023-05-21T01:13:41.339Z,4.93
2023-05-21T01:16:09.347Z,4.90
2023-05-21T01:18:38.055Z,5.30
2023-05-21T01:21:07.479Z,4.95
2023-05-21T01:23:34.791Z,5.13
2023-05-21T01:26:01.868Z,5.32
2023-05-21T01:28:29.915Z,5.20
2023-05-21T01:31:01.230Z,5.35
2023-05-21T01:33:47.839Z,5.22
2023-05-21T01:36:24.485Z,5.13
2023-05-21T01:39:14.360Z,4.53
2023-05-21T01:41:45.310Z,5.38
2023-05-21T01:44:16.477Z,4.90
2023-05-21T01:46:43.376Z,4.85
2023-05-21T01:49:11.308Z,5.60
2023-05-21T01:51:39.142Z,5.18
2023-05-21T01:54:06.200Z,4.80
2023-05-21T01:56:33.932Z,5.00
2023-05-21T01:59:01.052Z,5.30
2023-05-21T02:01:30.272Z,4.35
2023-05-21T02:04:00.600Z,5.00
2023-05-21T02:06:27.683Z,4.85
2023-05-21T02:08:55.614Z,5.50
2023-05-21T02:11:23.325Z,5.30
2023-05-21T02:13:50.194Z,5.13
2023-05-21T02:16:17.227Z,5.03
2023-05-21T02:18:44.773Z,4.93
2023-05-21T02:21:11.812Z,5.30
2023-05-21T02:23:38.731Z,4.90
2023-05-21T02:26:05.636Z,4.88
2023-05-21T02:28:32.813Z,5.18
2023-05-21T02:31:00.222Z,5.00
2023-05-21T02:33:28.183Z,4.90
2023-05-21T02:35:55.053Z,5.78
2023-05-21T02:38:23.082Z,5.70
2023-05-21T02:40:51.137Z,4.88
2023-05-21T02:43:18.102Z,5.03
2023-05-21T02:45:45.020Z,5.38
2023-05-21T02:48:12.213Z,5.28
2023-05-21T02:50:39.158Z,5.57
2023-05-21T02:53:07.301Z,5.47
2023-05-21T02:55:34.655Z,5.43
2023-05-21T02:58:01.869Z,5.00
2023-05-21T03:00:29.060Z,5.15
2023-05-21T03:02:56.015Z,5.03
2023-05-21T03:05:22.999Z,5.25
2023-05-21T03:07:50.008Z,5.07
2023-05-21T03:10:17.032Z,5.35
2023-05-21T03:12:43.937Z,4.82
2023-05-21T03:15:11.406Z,4.90
2023-05-21T03:17:38.334Z,4.90
2023-05-21T03:20:05.879Z,4.60
2023-05-21T03:22:33.009Z,5.00
2023-05-21T03:25:01.913Z,4.75
2023-05-21T03:27:29.299Z,5.13
2023-05-21T03:29:56.283Z,4.93
2023-05-21T03:32:23.268Z,5.55
2023-05-21T03:34:50.233Z,4.82
2023-05-21T03:37:17.102Z,4.93
2023-05-21T03:39:43.963Z,4.90
2023-05-21T03:42:10.892Z,5.28
2023-05-21T03:44:37.762Z,5.15
2023-05-21T03:47:04.770Z,4.65
2023-05-21T03:49:31.611Z,4.50
2023-05-21T03:51:58.463Z,4.57
2023-05-21T03:54:25.711Z,5.38
2023-05-21T03:56:52.633Z,4.50
2023-05-21T03:59:19.557Z,4.63
2023-05-21T04:01:46.585Z,4.78
2023-05-21T04:04:13.499Z,4.45
2023-05-21T04:06:42.322Z,4.90
2023-05-21T04:09:09.194Z,4.75
2023-05-21T04:11:36.654Z,4.85
2023-05-21T04:14:03.543Z,5.00
2023-05-21T04:16:30.622Z,4.70
2023-05-21T04:18:57.585Z,5.03
2023-05-21T04:21:24.482Z,4.63
2023-05-21T04:23:53.920Z,4.80
2023-05-21T04:26:20.777Z,4.25
2023-05-21T04:28:47.817Z,5.30
2023-05-21T04:31:15.205Z,5.53
2023-05-21T04:33:45.820Z,5.18
2023-05-21T04:36:12.753Z,5.28
2023-05-21T04:38:41.906Z,5.45
2023-05-21T04:41:10.809Z,5.18
2023-05-21T04:43:38.311Z,5.35
2023-05-21T04:46:06.016Z,5.55
2023-05-21T04:48:32.915Z,5.40
2023-05-21T04:50:59.890Z,4.75
2023-05-21T04:53:26.759Z,4.88
2023-05-21T04:55:53.617Z,4.80
2023-05-21T04:58:20.697Z,5.43
2023-05-21T05:00:47.678Z,5.18
2023-05-21T05:03:14.834Z,4.78
2023-05-21T05:05:42.130Z,5.05
2023-05-21T05:08:09.126Z,5.45
2023-05-21T05:10:36.367Z,5.15
2023-05-21T05:13:03.427Z,5.05
2023-05-21T05:15:30.337Z,5.03
2023-05-21T05:17:57.258Z,4.97
2023-05-21T05:20:24.173Z,4.93
2023-05-21T05:22:53.366Z,5.18
2023-05-21T05:25:21.151Z,5.00
2023-05-21T05:27:48.045Z,4.72
2023-05-21T05:30:15.014Z,4.80
2023-05-21T05:32:41.966Z,4.90
2023-05-21T05:35:09.528Z,5.30
2023-05-21T05:37:36.394Z,5.43
2023-05-21T05:40:04.452Z,5.47
2023-05-21T05:42:31.747Z,5.43
2023-05-21T05:44:58.622Z,5.45
2023-05-21T05:47:25.673Z,5.40
2023-05-21T05:49:52.547Z,5.35
2023-05-21T05:52:19.404Z,5.70
2023-05-21T05:54:46.298Z,5.18
2023-05-21T05:57:13.198Z,5.90
2023-05-21T05:59:40.088Z,5.38
2023-05-21T06:02:07.286Z,5.38
2023-05-21T06:04:34.194Z,5.57
2023-05-21T06:07:01.167Z,5.47
2023-05-21T06:09:28.166Z,5.90
2023-05-21T06:11:55.864Z,5.55
2023-05-21T06:14:22.732Z,5.57
2023-05-21T06:16:49.700Z,6.05
2023-05-21T06:19:16.637Z,6.20
2023-05-21T06:21:43.578Z,6.30
2023-05-21T06:24:10.471Z,5.90
2023-05-21T06:26:37.361Z,5.68
2023-05-21T06:29:04.283Z,6.03
2023-05-21T06:31:33.044Z,6.07
2023-05-21T06:34:00.820Z,5.75
2023-05-21T06:36:30.029Z,6.10
2023-05-21T06:38:57.258Z,6.20
2023-05-21T06:41:24.541Z,6.43
2023-05-21T06:43:51.588Z,5.57
2023-05-21T06:46:18.745Z,6.03
2023-05-21T06:48:46.451Z,5.85
2023-05-21T06:51:13.727Z,6.32
2023-05-21T06:53:41.012Z,5.85
2023-05-21T06:56:08.263Z,6.00
2023-05-21T06:58:35.152Z,5.88
2023-05-21T07:01:02.368Z,6.28
2023-05-21T07:03:29.784Z,5.88
2023-05-21T07:05:57.916Z,5.82
2023-05-21T07:08:24.848Z,6.07
2023-05-21T07:10:51.773Z,6.38
2023-05-21T07:13:18.758Z,6.28
2023-05-21T07:15:45.724Z,5.82
2023-05-21T07:18:13.332Z,6.55
2023-05-21T07:20:40.372Z,6.40
2023-05-21T07:23:07.219Z,6.28
2023-05-21T07:25:34.576Z,6.07
2023-05-21T07:28:01.669Z,6.45
2023-05-21T07:30:28.875Z,6.32
2023-05-21T07:32:55.962Z,6.88
2023-05-21T07:35:23.125Z,6.03
2023-05-21T07:37:50.088Z,6.38
2023-05-21T07:40:17.115Z,6.40
2023-05-21T07:42:44.023Z,6.32
2023-05-21T07:45:11.124Z,6.68
2023-05-21T07:47:38.048Z,6.50
2023-05-21T07:50:05.965Z,6.07
2023-05-21T07:52:32.885Z,5.80
2023-05-21T07:55:01.264Z,6.07
2023-05-21T07:57:28.485Z,6.15
2023-05-21T07:59:56.525Z,6.18
2023-05-21T08:02:23.520Z,5.75
2023-05-21T08:04:50.668Z,5.90
2023-05-21T08:07:19.902Z,6.32
2023-05-21T08:09:47.128Z,6.07
2023-05-21T08:12:15.927Z,6.00
2023-05-21T08:14:42.964Z,6.40
2023-05-21T08:17:13.468Z,5.78
2023-05-21T08:19:40.389Z,6.05
2023-05-21T08:22:07.430Z,5.80
2023-05-21T08:24:34.365Z,6.25
2023-05-21T08:27:01.319Z,6.20
2023-05-21T08:29:28.949Z,6.30
2023-05-21T08:31:56.455Z,5.97
2023-05-21T08:34:23.426Z,5.50
2023-05-21T08:36:50.521Z,5.82
2023-05-21T08:39:17.542Z,5.30
2023-05-21T08:41:49.802Z,5.40
2023-05-21T08:44:23.930Z,5.88
2023-05-21T08:46:51.930Z,5.80
2023-05-21T08:49:27.009Z,5.88
2023-05-21T08:51:55.005Z,5.87
2023-05-21T08:54:23.839Z,6.15
2023-05-21T08:56:51.104Z,6.15
2023-05-21T08:59:19.429Z,5.88
2023-05-21T09:01:47.153Z,5.65
2023-05-21T09:04:21.293Z,5.63
2023-05-21T09:06:48.974Z,5.65
2023-05-21T09:09:32.535Z,5.57
2023-05-21T09:11:59.574Z,5.93
2023-05-21T09:14:27.867Z,5.70
2023-05-21T09:16:54.811Z,5.82
2023-05-21T09:19:24.857Z,5.47
2023-05-21T09:21:52.823Z,5.63
2023-05-21T09:24:23.003Z,5.40
2023-05-21T09:26:50.087Z,5.13
2023-05-21T09:29:17.018Z,4.97
2023-05-21T09:31:47.683Z,5.10
2023-05-21T09:34:14.850Z,5.25
2023-05-21T09:36:41.799Z,5.45
2023-05-21T09:39:08.809Z,5.80
2023-05-21T09:41:37.010Z,5.25
2023-05-21T09:44:04.627Z,5.13
2023-05-21T09:46:41.552Z,5.55
2023-05-21T09:49:24.702Z,5.32
2023-05-21T09:51:58.283Z,4.70
2023-05-21T09:54:30.776Z,5.20
2023-05-21T09:56:57.730Z,4.80
2023-05-21T09:59:25.396Z,4.75
2023-05-21T10:01:53.157Z,5.30
2023-05-21T10:04:22.632Z,4.70
2023-05-21T10:06:50.357Z,4.60
2023-05-21T10:09:19.911Z,4.95
2023-05-21T10:11:49.533Z,4.25
2023-05-21T10:14:25.532Z,4.30
2023-05-21T10:16:54.572Z,4.80
2023-05-21T10:19:24.963Z,4.35
2023-05-21T10:21:53.206Z,5.03
2023-05-21T10:24:20.783Z,5.05
2023-05-21T10:26:48.701Z,4.85
2023-05-21T10:29:19.569Z,4.68
2023-05-21T10:31:49.867Z,4.53
2023-05-21T10:34:17.510Z,4.50
2023-05-21T10:36:45.188Z,4.45
2023-05-21T10:39:14.027Z,4.00
2023-05-21T10:41:59.018Z,4.60
2023-05-21T10:44:45.349Z,4.65
2023-05-21T10:47:33.184Z,4.47
2023-05-21T10:50:15.171Z,4.75
2023-05-21T10:53:10.585Z,4.55
2023-05-21T10:55:59.044Z,4.50
2023-05-21T10:58:43.773Z,4.63
2023-05-21T11:01:12.141Z,4.60
2023-05-21T11:03:39.695Z,4.40
2023-05-21T11:06:49.488Z,4.38
2023-05-21T11:09:16.795Z,4.20
2023-05-21T11:11:45.030Z,4.22
2023-05-21T11:14:38.145Z,4.57
2023-05-21T11:17:14.112Z,4.63
2023-05-21T11:19:48.984Z,4.18
2023-05-21T11:22:23.720Z,4.90
2023-05-21T11:24:51.710Z,4.25
2023-05-21T11:27:37.396Z,4.43
2023-05-21T11:30:18.386Z,4.50
2023-05-21T11:33:16.463Z,4.28
2023-05-21T11:35:46.188Z,4.50
2023-05-21T11:38:13.108Z,4.72
2023-05-21T11:40:55.072Z,3.97
2023-05-21T11:43:22.470Z,4.60
2023-05-21T11:45:52.677Z,4.50
2023-05-21T11:48:26.678Z,4.88
2023-05-21T11:50:54.731Z,4.50
2023-05-21T11:53:21.786Z,4.38
2023-05-21T11:55:48.832Z,4.40
2023-05-21T11:58:16.697Z,4.60
2023-05-21T12:00:43.711Z,5.10
2023-05-21T12:03:14.416Z,4.70
2023-05-21T12:05:49.010Z,4.60
2023-05-21T12:08:27.017Z,4.57
2023-05-21T12:11:02.911Z,4.32
2023-05-21T12:13:30.249Z,4.28
2023-05-21T12:15:57.129Z,4.55
2023-05-21T12:18:25.005Z,4.22
2023-05-21T12:20:52.249Z,4.40
2023-05-21T12:23:26.026Z,4.15
2023-05-21T12:25:56.257Z,4.07
2023-05-21T12:28:24.598Z,4.10
2023-05-21T12:30:51.581Z,5.00
2023-05-21T12:33:19.385Z,4.60
2023-05-21T12:35:49.865Z,4.32
2023-05-21T12:38:17.030Z,4.38
2023-05-21T12:40:45.662Z,4.18
2023-05-21T12:43:12.942Z,4.53
2023-05-21T12:45:40.456Z,3.97
2023-05-21T12:48:07.863Z,4.10
2023-05-21T12:50:35.867Z,4.22
2023-05-21T12:53:03.239Z,4.25
2023-05-21T12:55:31.579Z,4.47
2023-05-21T12:58:07.823Z,4.45
2023-05-21T13:00:34.928Z,3.80
2023-05-21T13:03:04.443Z,3.85
2023-05-21T13:05:31.858Z,4.20
2023-05-21T13:07:58.865Z,4.18
2023-05-21T13:10:25.802Z,3.88
2023-05-21T13:12:52.679Z,3.80
2023-05-21T13:15:19.950Z,4.30
2023-05-21T13:17:49.163Z,3.95
2023-05-21T13:20:20.577Z,4.50
2023-05-21T13:22:49.491Z,4.57
2023-05-21T13:25:21.427Z,4.03
2023-05-21T13:27:49.865Z,4.20
2023-05-21T13:30:16.984Z,3.78
2023-05-21T13:32:44.196Z,4.03
2023-05-21T13:35:12.198Z,4.28
2023-05-21T13:37:40.619Z,4.20
2023-05-21T13:40:14.481Z,3.70
2023-05-21T13:42:42.009Z,4.18
2023-05-21T13:45:11.563Z,4.00
2023-05-21T13:47:40.459Z,3.92
2023-05-21T13:50:09.096Z,4.18
2023-05-21T13:52:37.769Z,3.70
2023-05-21T13:55:05.916Z,4.10
2023-05-21T13:57:33.270Z,4.32
2023-05-21T14:00:01.239Z,4.00
2023-05-21T14:02:28.963Z,3.72
2023-05-21T14:04:55.983Z,3.90
2023-05-21T14:07:22.913Z,3.53
2023-05-21T14:09:49.946Z,4.10
2023-05-21T14:12:17.198Z,3.58
2023-05-21T14:14:44.388Z,4.03
2023-05-21T14:17:11.342Z,4.18
2023-05-21T14:19:38.270Z,3.80
2023-05-21T14:22:05.465Z,4.07
2023-05-21T14:24:32.493Z,3.72
2023-05-21T14:26:59.368Z,3.83
2023-05-21T14:29:26.282Z,3.80
2023-05-21T14:31:53.255Z,3.63
2023-05-21T14:34:20.242Z,4.13
2023-05-21T14:36:47.098Z,4.10
2023-05-21T14:39:14.174Z,3.58
2023-05-21T14:41:41.238Z,3.90
2023-05-21T14:44:08.338Z,3.85
2023-05-21T14:46:35.653Z,3.92
2023-05-21T14:49:03.737Z,3.42
2023-05-21T14:51:31.684Z,3.25
2023-05-21T14:53:59.533Z,4.10
2023-05-21T14:56:28.042Z,3.58
2023-05-21T14:58:55.235Z,3.65
2023-05-21T15:01:22.281Z,4.10
2023-05-21T15:03:49.458Z,3.60
2023-05-21T15:06:16.752Z,3.42
2023-05-21T15:08:43.627Z,3.45
2023-05-21T15:11:11.507Z,3.58
2023-05-21T15:13:38.627Z,3.45
2023-05-21T15:16:06.194Z,3.38
2023-05-21T15:18:33.355Z,3.88
2023-05-21T15:21:00.459Z,3.83
2023-05-21T15:23:27.367Z,3.50
2023-05-21T15:25:54.289Z,3.38
2023-05-21T15:28:22.943Z,3.90
2023-05-21T15:30:49.949Z,3.30
2023-05-21T15:33:17.071Z,3.60
2023-05-21T15:35:44.452Z,3.55
2023-05-21T15:38:11.723Z,3.63
2023-05-21T15:40:41.459Z,3.70
2023-05-21T15:43:08.448Z,3.72
2023-05-21T15:45:35.533Z,3.58
2023-05-21T15:48:02.664Z,3.70
2023-05-21T15:50:29.904Z,3.90
2023-05-21T15:52:56.777Z,3.65
2023-05-21T15:55:23.704Z,3.83
2023-05-21T15:57:50.626Z,3.17
2023-05-21T16:00:17.655Z,3.30
2023-05-21T16:02:44.736Z,3.40
2023-05-21T16:05:11.666Z,3.28
2023-05-21T16:07:38.667Z,3.45
2023-05-21T16:10:08.136Z,3.85
2023-05-21T16:12:35.097Z,3.72
2023-05-21T16:15:02.137Z,3.97
2023-05-21T16:17:29.876Z,3.63
2023-05-21T16:19:56.908Z,3.63
2023-05-21T16:22:24.649Z,3.90
2023-05-21T16:24:51.601Z,3.70
2023-05-21T16:27:18.472Z,3.80
2023-05-21T16:29:45.566Z,3.60
2023-05-21T16:32:13.991Z,3.63
2023-05-21T16:34:41.260Z,3.88
2023-05-21T16:37:09.676Z,3.55
2023-05-21T16:39:37.416Z,3.33
2023-05-21T16:42:04.771Z,3.53
2023-05-21T16:44:32.236Z,3.50
2023-05-21T16:47:00.296Z,3.55
2023-05-21T16:49:27.674Z,3.53
2023-05-21T16:51:54.715Z,3.60
2023-05-21T16:54:21.833Z,3.88
2023-05-21T16:56:48.861Z,3.70
2023-05-21T16:59:16.642Z,3.60
2023-05-21T17:01:44.701Z,4.13
2023-05-21T17:04:11.779Z,3.40
2023-05-21T17:06:38.700Z,3.63
2023-05-21T17:09:05.713Z,3.80
2023-05-21T17:11:32.722Z,4.07
2023-05-21T17:13:59.592Z,3.80
2023-05-21T17:16:26.774Z,3.90
2023-05-21T17:18:53.795Z,4.07
2023-05-21T17:21:20.743Z,4.30
2023-05-21T17:23:47.674Z,3.78
2023-05-21T17:26:14.624Z,4.25
2023-05-21T17:28:41.645Z,4.00
2023-05-21T17:31:09.496Z,4.30
2023-05-21T17:33:37.659Z,4.57
2023-05-21T17:36:05.014Z,5.00
2023-05-21T17:38:31.959Z,4.20
2023-05-21T17:40:59.352Z,4.57
2023-05-21T17:43:27.658Z,5.32
2023-05-21T17:45:54.551Z,4.75
2023-05-21T17:48:21.611Z,4.32
2023-05-21T17:50:48.710Z,4.38
2023-05-21T17:53:16.283Z,4.82
2023-05-21T17:55:43.248Z,4.80
2023-05-21T17:58:10.238Z,4.40
2023-05-21T18:00:37.261Z,4.93
2023-05-21T18:03:04.436Z,5.00
2023-05-21T18:05:31.576Z,4.40
2023-05-21T18:08:00.149Z,4.80
2023-05-21T18:10:27.106Z,5.22
2023-05-21T18:12:54.089Z,4.63
2023-05-21T18:15:21.215Z,4.65
2023-05-21T18:17:48.173Z,4.95
2023-05-21T18:20:15.181Z,4.50
2023-05-21T18:22:42.375Z,5.18
2023-05-21T18:25:09.810Z,4.85
2023-05-21T18:27:36.957Z,4.68
2023-05-21T18:30:06.371Z,4.57
2023-05-21T18:32:34.124Z,4.80
2023-05-21T18:35:01.064Z,4.95
2023-05-21T18:37:29.252Z,4.85
2023-05-21T18:39:56.119Z,4.90
2023-05-21T18:42:23.051Z,4.65
2023-05-21T18:44:52.976Z,5.22
2023-05-21T18:47:19.871Z,4.40
2023-05-21T18:49:46.754Z,4.88
2023-05-21T18:52:14.103Z,4.88
2023-05-21T18:54:41.520Z,4.30
2023-05-21T18:57:08.401Z,4.70
2023-05-21T18:59:35.375Z,4.97
2023-05-21T19:02:04.077Z,4.40
2023-05-21T19:04:31.188Z,5.32
2023-05-21T19:06:58.137Z,4.28
2023-05-21T19:09:25.031Z,4.50
2023-05-21T19:11:52.043Z,5.00
2023-05-21T19:14:20.313Z,4.30
2023-05-21T19:16:47.428Z,4.88
2023-05-21T19:19:14.373Z,4.85
2023-05-21T19:21:41.526Z,4.75
2023-05-21T19:24:08.490Z,4.63
2023-05-21T19:26:35.424Z,4.93
2023-05-21T19:29:02.303Z,5.05
2023-05-21T19:31:29.431Z,4.97
2023-05-21T19:33:56.344Z,4.20
2023-05-21T19:36:24.274Z,4.93
2023-05-21T19:38:51.624Z,4.88
2023-05-21T19:41:22.008Z,4.00
2023-05-21T19:43:48.909Z,4.10
2023-05-21T19:46:18.298Z,4.82
2023-05-21T19:48:47.302Z,4.80
2023-05-21T19:51:14.187Z,4.13
2023-05-21T19:53:41.042Z,4.68
2023-05-21T19:56:08.021Z,4.63
2023-05-21T19:58:34.917Z,4.47
2023-05-21T20:01:03.334Z,4.20
2023-05-21T20:03:35.678Z,4.88
2023-05-21T20:06:03.455Z,4.82
2023-05-21T20:08:30.732Z,5.03
2023-05-21T20:10:57.662Z,4.50
2023-05-21T20:13:24.777Z,5.03
2023-05-21T20:15:51.759Z,4.85
2023-05-21T20:18:20.248Z,4.22
2023-05-21T20:20:47.323Z,5.20
2023-05-21T20:23:14.329Z,4.47
2023-05-21T20:25:41.219Z,4.93
2023-05-21T20:28:08.466Z,4.60
2023-05-21T20:30:51.008Z,4.68
2023-05-21T20:33:18.307Z,4.97
2023-05-21T20:35:45.796Z,5.55
2023-05-21T20:38:13.563Z,4.82
2023-05-21T20:40:40.674Z,5.15
2023-05-21T20:43:08.169Z,5.18
2023-05-21T20:45:36.158Z,5.50
2023-05-21T20:48:03.421Z,5.32
2023-05-21T20:50:30.394Z,5.15
2023-05-21T20:52:58.390Z,5.40
2023-05-21T20:55:25.338Z,5.65
2023-05-21T20:57:52.621Z,5.25
2023-05-21T21:00:20.173Z,5.20
2023-05-21T21:02:47.123Z,5.25
2023-05-21T21:05:14.047Z,5.30
2023-05-21T21:07:41.860Z,5.28
2023-05-21T21:10:09.236Z,5.00
2023-05-21T21:12:36.180Z,5.05
2023-05-21T21:15:03.425Z,5.40
2023-05-21T21:17:30.771Z,5.05
2023-05-21T21:19:57.603Z,5.18
2023-05-21T21:22:24.581Z,5.20
2023-05-21T21:24:51.496Z,5.22
2023-05-21T21:27:18.357Z,5.68
2023-05-21T21:29:46.319Z,5.20
2023-05-21T21:32:13.501Z,5.13
2023-05-21T21:34:40.500Z,4.75
2023-05-21T21:37:07.442Z,5.20
2023-05-21T21:39:34.304Z,4.80
2023-05-21T21:42:01.182Z,5.38
2023-05-21T21:44:28.059Z,4.60
2023-05-21T21:46:54.939Z,5.13
2023-05-21T21:49:21.834Z,4.97
2023-05-21T21:51:49.104Z,5.15
2023-05-21T21:54:16.141Z,5.03
2023-05-21T21:56:43.081Z,4.38
2023-05-21T21:59:10.042Z,4.90
2023-05-21T22:01:37.108Z,4.97
2023-05-21T22:04:04.212Z,4.93
2023-05-21T22:06:31.331Z,5.07
2023-05-21T22:08:58.274Z,5.28
2023-05-21T22:11:26.930Z,4.80
2023-05-21T22:13:53.843Z,4.80
2023-05-21T22:16:20.801Z,5.05
2023-05-21T22:18:50.076Z,5.13
2023-05-21T22:21:18.527Z,5.03
2023-05-21T22:23:45.471Z,4.53
2023-05-21T22:26:12.414Z,4.70
2023-05-21T22:28:39.309Z,4.30
2023-05-21T22:31:07.844Z,5.13
2023-05-21T22:33:34.768Z,5.15
2023-05-21T22:36:01.618Z,4.50
2023-05-21T22:38:28.731Z,5.05
2023-05-21T22:40:55.875Z,5.10
2023-05-21T22:43:22.751Z,4.57
2023-05-21T22:45:49.620Z,4.90
2023-05-21T22:48:18.190Z,4.80
2023-05-21T22:50:46.134Z,4.68
2023-05-21T22:53:13.463Z,4.90
2023-05-21T22:55:40.508Z,4.45
2023-05-21T22:58:07.406Z,4.53
2023-05-21T23:00:34.306Z,4.80
2023-05-21T23:03:01.240Z,4.50
2023-05-21T23:05:28.264Z,4.93
2023-05-21T23:07:55.203Z,4.85
2023-05-21T23:10:22.068Z,5.07
2023-05-21T23:12:48.919Z,4.95
2023-05-21T23:15:15.909Z,4.85
2023-05-21T23:17:42.855Z,4.68
2023-05-21T23:20:10.781Z,4.93
2023-05-21T23:22:37.741Z,4.65
2023-05-21T23:25:05.778Z,4.47
2023-05-21T23:27:32.695Z,4.40
2023-05-21T23:30:00.172Z,4.70
2023-05-21T23:32:27.358Z,4.80
2023-05-21T23:34:54.302Z,5.22
2023-05-21T23:37:21.335Z,4.88
2023-05-21T23:39:49.645Z,4.88
2023-05-21T23:42:17.654Z,4.70
2023-05-21T23:44:44.579Z,4.63
2023-05-21T23:47:11.514Z,4.78
2023-05-21T23:49:39.492Z,4.38
2023-05-21T23:52:06.985Z,4.80
2023-05-21T23:54:33.964Z,4.88
2023-05-21T23:57:02.069Z,4.90
2023-05-21T23:59:29.454Z,4.97
